Terminal Aerodrome Forecast
Issued by NWS

Home | Current Version | Previous Version | Text Only | Print | Product List | Glossary On
Versions: 1 2 3 4 5 6 7 8 9 10 11 12 13 14 15 16 17
000
FTAK31 PANC 250521
TAFADQ
TAF
PADQ 250521Z 2506/2606 29006KT P6SM SKC
     FM251900 12008KT P6SM SCT250
     FM260400 21008KT P6SM BKN080=

USA.gov is the U.S. government's official web portal to all federal, state and local government web resources and services.